Terminal Aerodrome Forecast
Issued by NWS Northern Indiana

Home | Current Version | Previous Version | Graphics & Text | Print | Product List | Glossary On
Versions: 1 2 3 4 5 6 7 8 9 10 11 12 13 14 15 16
000
FTUS43 KIWX 031428 AAA
TAFFWA
TAF AMD
KFWA 031428Z 0314/0412 26010KT P6SM SCT007 BKN015
      TEMPO 0314/0316 BKN007
     FM031600 28010KT P6SM SCT050=

USA.gov is the U.S. government's official web portal to all federal, state and local government web resources and services.